createdAt,value
2024-02-13T00:03:16.630Z,39.14
2024-02-13T00:08:45.274Z,39.30
2024-02-13T00:14:10.792Z,39.14
2024-02-13T00:19:32.750Z,39.02
2024-02-13T00:24:54.591Z,39.21
2024-02-13T00:30:16.457Z,39.50
2024-02-13T00:35:38.353Z,39.60
2024-02-13T00:41:04.223Z,39.48
2024-02-13T00:46:26.135Z,39.13
2024-02-13T00:51:48.186Z,39.16
2024-02-13T00:57:10.385Z,39.45
2024-02-13T01:02:32.409Z,39.26
2024-02-13T01:07:54.871Z,39.49
2024-02-13T01:13:17.203Z,39.30
2024-02-13T01:18:39.106Z,39.76
2024-02-13T01:24:00.988Z,39.32
2024-02-13T01:29:23.076Z,39.83
2024-02-13T01:34:45.161Z,39.54
2024-02-13T01:40:07.751Z,39.57
2024-02-13T01:45:29.871Z,39.39
2024-02-13T01:50:52.224Z,39.68
2024-02-13T01:56:14.363Z,39.85
2024-02-13T02:01:38.130Z,39.86
2024-02-13T02:07:00.042Z,39.62
2024-02-13T02:12:22.198Z,39.48
2024-02-13T02:17:54.392Z,39.67
2024-02-13T02:23:16.359Z,39.64
2024-02-13T02:28:38.716Z,39.53
2024-02-13T02:34:01.004Z,39.70
2024-02-13T02:39:22.913Z,39.58
2024-02-13T02:44:45.127Z,39.84
2024-02-13T02:50:07.153Z,39.88
2024-02-13T02:55:30.628Z,39.58
2024-02-13T03:00:53.652Z,39.74
2024-02-13T03:06:15.702Z,39.94
2024-02-13T03:11:39.061Z,39.60
2024-02-13T03:17:00.976Z,39.62
2024-02-13T03:22:22.877Z,39.56
2024-02-13T03:27:44.771Z,39.71
2024-02-13T03:33:06.951Z,39.71
2024-02-13T03:38:29.058Z,40.01
2024-02-13T03:43:51.031Z,39.57
2024-02-13T03:49:13.063Z,40.00
2024-02-13T03:54:35.149Z,39.82
2024-02-13T03:59:57.058Z,39.56
2024-02-13T04:05:19.021Z,39.93
2024-02-13T04:10:41.155Z,39.84
2024-02-13T04:16:03.039Z,39.85
2024-02-13T04:21:24.992Z,40.02
2024-02-13T04:26:46.982Z,39.79
2024-02-13T04:32:08.845Z,39.73
2024-02-13T04:37:30.734Z,39.92
2024-02-13T04:42:52.602Z,39.97
2024-02-13T04:48:14.769Z,40.00
2024-02-13T04:53:36.901Z,39.83
2024-02-13T04:58:58.737Z,39.91
2024-02-13T05:04:20.614Z,39.97
2024-02-13T05:09:42.615Z,39.60
2024-02-13T05:15:06.908Z,39.73
2024-02-13T05:20:28.751Z,39.97
2024-02-13T05:25:50.640Z,39.60
2024-02-13T05:31:12.986Z,39.96
2024-02-13T05:36:34.857Z,39.59
2024-02-13T05:41:57.431Z,39.94
2024-02-13T05:47:19.936Z,39.80
2024-02-13T05:52:42.424Z,39.85
2024-02-13T05:58:04.711Z,39.87
2024-02-13T06:03:26.614Z,39.48
2024-02-13T06:08:48.629Z,39.85
2024-02-13T06:14:10.521Z,39.77
2024-02-13T06:19:32.421Z,39.60
2024-02-13T06:24:54.359Z,39.63
2024-02-13T06:30:17.828Z,38.70
2024-02-13T06:35:41.215Z,38.18
2024-02-13T06:41:06.972Z,37.53
2024-02-13T06:46:28.971Z,37.35
2024-02-13T06:51:50.810Z,37.54
2024-02-13T06:57:12.975Z,37.02
2024-02-13T07:02:35.454Z,37.03
2024-02-13T07:07:57.472Z,37.43
2024-02-13T07:13:19.576Z,37.04
2024-02-13T07:18:43.638Z,37.07
2024-02-13T07:24:05.962Z,37.35
2024-02-13T07:29:27.885Z,37.67
2024-02-13T07:34:49.815Z,37.33
2024-02-13T07:40:14.704Z,37.63
2024-02-13T07:45:36.571Z,37.67
2024-02-13T07:50:59.280Z,37.33
2024-02-13T07:56:26.527Z,37.38
2024-02-13T08:01:48.454Z,37.64
2024-02-13T08:07:10.769Z,37.44
2024-02-13T08:12:33.151Z,37.04
2024-02-13T08:17:55.142Z,36.68
2024-02-13T08:23:17.087Z,36.25
2024-02-13T08:28:39.477Z,36.02
2024-02-13T08:34:04.342Z,35.58
2024-02-13T08:39:26.373Z,35.88
2024-02-13T08:44:48.347Z,35.78
2024-02-13T08:50:10.738Z,35.54
2024-02-13T08:55:32.663Z,36.13
2024-02-13T09:00:54.567Z,35.84
2024-02-13T09:06:18.378Z,35.99
2024-02-13T09:11:40.850Z,35.74
2024-02-13T09:17:02.846Z,35.83
2024-02-13T09:22:24.751Z,36.14
2024-02-13T09:27:49.746Z,35.48
2024-02-13T09:33:11.990Z,35.72
2024-02-13T09:38:34.009Z,35.38
2024-02-13T09:43:57.074Z,35.35
2024-02-13T09:49:19.401Z,35.42
2024-02-13T09:54:45.761Z,35.16
2024-02-13T10:00:11.523Z,35.15
2024-02-13T10:05:34.417Z,35.07
2024-02-13T10:11:17.817Z,35.58
2024-02-13T10:16:39.987Z,35.51
2024-02-13T10:22:09.010Z,36.26
2024-02-13T10:27:31.195Z,36.27
2024-02-13T10:32:53.743Z,36.34
2024-02-13T10:38:24.106Z,36.31
2024-02-13T10:43:47.880Z,36.88
2024-02-13T10:49:26.217Z,37.07
2024-02-13T10:54:50.298Z,37.13
2024-02-13T11:00:16.242Z,37.01
2024-02-13T11:05:38.659Z,37.08
2024-02-13T11:11:08.419Z,37.10
2024-02-13T11:16:35.252Z,36.91
2024-02-13T11:21:57.534Z,36.93
2024-02-13T11:27:29.593Z,36.48
2024-02-13T11:33:03.429Z,36.78
2024-02-13T11:38:27.625Z,36.26
2024-02-13T11:43:49.869Z,36.32
2024-02-13T11:49:12.482Z,36.26
2024-02-13T11:54:35.712Z,36.40
2024-02-13T12:00:01.836Z,36.19
2024-02-13T12:05:26.627Z,36.57
2024-02-13T12:10:53.771Z,36.83
2024-02-13T12:16:16.002Z,37.05
2024-02-13T12:21:40.767Z,36.76
2024-02-13T12:27:03.514Z,36.74
2024-02-13T12:32:27.084Z,36.83
2024-02-13T12:37:53.491Z,36.91
2024-02-13T12:43:17.483Z,36.80
2024-02-13T12:48:44.325Z,36.98
2024-02-13T12:54:08.527Z,37.26
2024-02-13T12:59:30.564Z,37.31
2024-02-13T13:04:53.793Z,37.00
2024-02-13T13:10:18.311Z,37.09
2024-02-13T13:15:42.261Z,37.04
2024-02-13T13:21:04.632Z,37.16
2024-02-13T13:26:34.146Z,37.34
2024-02-13T13:31:56.811Z,37.49
2024-02-13T13:37:18.681Z,37.37
2024-02-13T13:42:44.744Z,37.66
2024-02-13T13:48:17.085Z,37.66
2024-02-13T13:53:41.643Z,37.38
2024-02-13T13:59:05.132Z,37.29
2024-02-13T14:04:27.784Z,37.37
2024-02-13T14:09:49.595Z,37.35
2024-02-13T14:15:11.908Z,37.74
2024-02-13T14:20:39.048Z,37.40
2024-02-13T14:26:00.982Z,37.50
2024-02-13T14:31:22.962Z,37.56
2024-02-13T14:36:46.505Z,37.60
2024-02-13T14:42:10.031Z,37.51
2024-02-13T14:47:33.161Z,37.69
2024-02-13T14:52:55.103Z,37.30
2024-02-13T14:58:26.030Z,37.57
2024-02-13T15:03:56.187Z,37.04
2024-02-13T15:09:23.351Z,36.74
2024-02-13T15:14:45.377Z,36.79
2024-02-13T15:20:08.460Z,36.35
2024-02-13T15:25:31.657Z,36.37
2024-02-13T15:30:54.509Z,36.13
2024-02-13T15:36:38.656Z,36.12
2024-02-13T15:42:19.130Z,36.00
2024-02-13T15:47:41.173Z,36.00
2024-02-13T15:53:04.509Z,36.08
2024-02-13T15:58:27.570Z,36.04
2024-02-13T16:03:49.472Z,36.13
2024-02-13T16:09:13.639Z,36.26
2024-02-13T16:14:35.735Z,36.21
2024-02-13T16:19:58.911Z,36.30
2024-02-13T16:25:20.882Z,36.09
2024-02-13T16:30:45.041Z,35.98
2024-02-13T16:36:07.931Z,35.37
2024-02-13T16:41:29.914Z,35.46
2024-02-13T16:46:52.583Z,35.93
2024-02-13T16:52:14.632Z,35.97
2024-02-13T16:57:41.564Z,35.29
2024-02-13T17:03:06.412Z,36.06
2024-02-13T17:08:28.606Z,36.13
2024-02-13T17:13:50.773Z,36.13
2024-02-13T17:19:15.580Z,36.79
2024-02-13T17:24:41.181Z,36.78
2024-02-13T17:30:06.653Z,36.90
2024-02-13T17:35:33.725Z,37.10
2024-02-13T17:40:55.871Z,37.69
2024-02-13T17:46:17.786Z,37.79
2024-02-13T17:51:39.613Z,37.85
2024-02-13T17:57:03.153Z,37.93
2024-02-13T18:02:25.283Z,38.48
2024-02-13T18:07:47.136Z,38.31
2024-02-13T18:13:12.075Z,38.33
2024-02-13T18:18:34.276Z,37.92
2024-02-13T18:23:59.770Z,36.88
2024-02-13T18:29:23.696Z,36.85
2024-02-13T18:34:46.548Z,36.39
2024-02-13T18:40:09.753Z,35.83
2024-02-13T18:45:34.828Z,35.33
2024-02-13T18:50:56.710Z,35.30
2024-02-13T18:56:19.661Z,35.70
2024-02-13T19:01:41.623Z,35.39
2024-02-13T19:07:03.808Z,35.63
2024-02-13T19:12:25.934Z,35.77
2024-02-13T19:17:48.384Z,35.52
2024-02-13T19:23:10.421Z,35.51
2024-02-13T19:28:32.806Z,35.51
2024-02-13T19:33:55.722Z,35.90
2024-02-13T19:39:17.673Z,36.05
2024-02-13T19:44:39.654Z,36.09
2024-02-13T19:50:02.593Z,36.49
2024-02-13T19:55:25.350Z,36.42
2024-02-13T20:00:47.345Z,35.93
2024-02-13T20:06:09.812Z,36.34
2024-02-13T20:11:31.910Z,36.12
2024-02-13T20:16:54.043Z,36.09
2024-02-13T20:22:16.090Z,36.06
2024-02-13T20:27:38.186Z,35.92
2024-02-13T20:33:01.623Z,35.96
2024-02-13T20:38:23.695Z,35.84
2024-02-13T20:43:45.872Z,36.04
2024-02-13T20:49:09.692Z,35.71
2024-02-13T20:54:32.801Z,35.70
2024-02-13T20:59:55.003Z,35.88
2024-02-13T21:05:16.901Z,35.74
2024-02-13T21:10:38.747Z,35.67
2024-02-13T21:16:01.213Z,35.76
2024-02-13T21:21:41.964Z,35.63
2024-02-13T21:27:04.391Z,35.63
2024-02-13T21:32:26.392Z,35.09
2024-02-13T21:37:48.643Z,35.24
2024-02-13T21:43:10.657Z,35.14
2024-02-13T21:48:32.613Z,35.35
2024-02-13T21:53:54.641Z,35.57
2024-02-13T21:59:16.610Z,35.54
2024-02-13T22:04:39.412Z,35.12
2024-02-13T22:10:01.539Z,34.95
2024-02-13T22:15:23.561Z,35.40
2024-02-13T22:20:45.595Z,35.59
2024-02-13T22:26:07.465Z,35.38
2024-02-13T22:31:31.278Z,35.56
2024-02-13T22:36:55.955Z,35.24
2024-02-13T22:42:17.983Z,35.29
2024-02-13T22:47:40.683Z,35.46
2024-02-13T22:53:04.369Z,35.33
2024-02-13T22:58:26.260Z,35.41
2024-02-13T23:03:48.329Z,35.70
2024-02-13T23:09:18.375Z,36.04
2024-02-13T23:14:41.881Z,36.16
2024-02-13T23:20:04.758Z,35.91
2024-02-13T23:25:30.291Z,35.80
2024-02-13T23:30:52.009Z,35.92
2024-02-13T23:36:14.060Z,36.12
2024-02-13T23:41:36.125Z,35.97
2024-02-13T23:46:57.989Z,36.43
2024-02-13T23:52:19.823Z,36.21
2024-02-13T23:57:41.997Z,36.47
